Aviation Digital Data Service (ADDS)

Output produced by METARs form (0231 UTC 07 July 2015)
found at http://aviationweather.gov/adds/metars/
 
KPIT 070220Z 0702/0806 VRB03KT P6SM SCT100 
     FM070900 VRB03KT 5SM BR SCT150 
     FM071500 22011G18KT P6SM BKN035 
     FM072200 23008KT P6SM VCTS BKN035CB 
     FM080000 23008KT 4SM TSRA OVC035CB